sensor_id;sensor_type;location;lat;lon;timestamp;P1;durP1;ratioP1;P2;durP2;ratioP2
60241;SDS011;46103;52.076;113.488;2022-08-19T00:01:59;5.18;;;1.77;;
60241;SDS011;46103;52.076;113.488;2022-08-19T00:05:05;6.32;;;1.50;;
60241;SDS011;46103;52.076;113.488;2022-08-19T00:08:12;4.47;;;1.10;;
60241;SDS011;46103;52.076;113.488;2022-08-19T00:11:17;3.58;;;1.33;;
60241;SDS011;46103;52.076;113.488;2022-08-19T00:14:28;7.53;;;1.33;;
60241;SDS011;46103;52.076;113.488;2022-08-19T00:17:35;5.35;;;1.35;;
60241;SDS011;46103;52.076;113.488;2022-08-19T00:20:44;8.15;;;1.80;;
60241;SDS011;46103;52.076;113.488;2022-08-19T00:23:50;3.25;;;1.30;;
60241;SDS011;46103;52.076;113.488;2022-08-19T00:26:55;7.43;;;2.00;;
60241;SDS011;46103;52.076;113.488;2022-08-19T00:30:21;1.85;;;1.05;;
60241;SDS011;46103;52.076;113.488;2022-08-19T00:33:27;2.28;;;1.05;;
60241;SDS011;46103;52.076;113.488;2022-08-19T00:36:35;3.17;;;0.90;;
60241;SDS011;46103;52.076;113.488;2022-08-19T00:39:42;3.15;;;1.13;;
60241;SDS011;46103;52.076;113.488;2022-08-19T00:42:50;4.25;;;1.25;;
60241;SDS011;46103;52.076;113.488;2022-08-19T00:45:58;2.20;;;0.80;;
60241;SDS011;46103;52.076;113.488;2022-08-19T00:52:55;4.13;;;0.98;;
60241;SDS011;46103;52.076;113.488;2022-08-19T00:56:02;7.32;;;1.60;;
60241;SDS011;46103;52.076;113.488;2022-08-19T00:59:10;1.30;;;0.70;;
60241;SDS011;46103;52.076;113.488;2022-08-19T01:02:35;1.73;;;0.73;;
60241;SDS011;46103;52.076;113.488;2022-08-19T01:05:42;1.80;;;0.90;;
60241;SDS011;46103;52.076;113.488;2022-08-19T01:09:00;7.35;;;1.05;;
60241;SDS011;46103;52.076;113.488;2022-08-19T01:12:06;1.80;;;1.05;;
60241;SDS011;46103;52.076;113.488;2022-08-19T01:15:14;5.03;;;1.10;;
60241;SDS011;46103;52.076;113.488;2022-08-19T01:18:22;2.90;;;0.90;;
60241;SDS011;46103;52.076;113.488;2022-08-19T01:21:37;0.95;;;0.70;;
60241;SDS011;46103;52.076;113.488;2022-08-19T01:24:49;2.10;;;0.95;;
60241;SDS011;46103;52.076;113.488;2022-08-19T01:27:58;2.97;;;0.60;;
60241;SDS011;46103;52.076;113.488;2022-08-19T01:31:13;1.05;;;0.50;;
60241;SDS011;46103;52.076;113.488;2022-08-19T01:34:29;1.50;;;0.80;;
60241;SDS011;46103;52.076;113.488;2022-08-19T01:37:43;2.92;;;0.70;;
60241;SDS011;46103;52.076;113.488;2022-08-19T01:40:51;3.90;;;0.80;;
60241;SDS011;46103;52.076;113.488;2022-08-19T01:43:56;1.55;;;0.68;;
60241;SDS011;46103;52.076;113.488;2022-08-19T01:47:19;3.97;;;0.80;;
60241;SDS011;46103;52.076;113.488;2022-08-19T01:50:25;1.40;;;0.65;;
60241;SDS011;46103;52.076;113.488;2022-08-19T01:53:31;1.55;;;0.60;;
60241;SDS011;46103;52.076;113.488;2022-08-19T01:56:37;2.35;;;0.90;;
60241;SDS011;46103;52.076;113.488;2022-08-19T01:59:42;0.50;;;0.40;;
60241;SDS011;46103;52.076;113.488;2022-08-19T02:02:49;0.50;;;0.50;;
60241;SDS011;46103;52.076;113.488;2022-08-19T02:05:56;1.55;;;0.70;;
60241;SDS011;46103;52.076;113.488;2022-08-19T02:09:07;0.52;;;0.50;;
60241;SDS011;46103;52.076;113.488;2022-08-19T02:12:13;2.70;;;0.75;;
60241;SDS011;46103;52.076;113.488;2022-08-19T02:15:21;1.60;;;0.65;;
60241;SDS011;46103;52.076;113.488;2022-08-19T02:18:27;1.63;;;0.90;;
60241;SDS011;46103;52.076;113.488;2022-08-19T02:21:33;1.85;;;0.70;;
60241;SDS011;46103;52.076;113.488;2022-08-19T02:24:39;1.48;;;0.70;;
60241;SDS011;46103;52.076;113.488;2022-08-19T02:27:44;5.03;;;0.50;;
60241;SDS011;46103;52.076;113.488;2022-08-19T02:30:52;2.92;;;0.82;;
60241;SDS011;46103;52.076;113.488;2022-08-19T02:33:58;5.15;;;0.80;;
60241;SDS011;46103;52.076;113.488;2022-08-19T02:37:05;2.55;;;0.77;;
60241;SDS011;46103;52.076;113.488;2022-08-19T02:40:31;1.83;;;0.60;;
60241;SDS011;46103;52.076;113.488;2022-08-19T02:43:38;1.25;;;0.45;;
60241;SDS011;46103;52.076;113.488;2022-08-19T02:47:04;3.50;;;0.60;;
60241;SDS011;46103;52.076;113.488;2022-08-19T02:50:11;9.35;;;1.35;;
60241;SDS011;46103;52.076;113.488;2022-08-19T02:53:17;9.77;;;0.82;;
60241;SDS011;46103;52.076;113.488;2022-08-19T02:56:26;5.55;;;0.80;;
60241;SDS011;46103;52.076;113.488;2022-08-19T02:59:31;1.00;;;0.40;;
60241;SDS011;46103;52.076;113.488;2022-08-19T03:02:35;1.92;;;0.50;;
60241;SDS011;46103;52.076;113.488;2022-08-19T03:05:38;4.45;;;0.75;;
60241;SDS011;46103;52.076;113.488;2022-08-19T03:08:57;2.95;;;0.50;;
60241;SDS011;46103;52.076;113.488;2022-08-19T03:12:02;4.18;;;0.45;;
60241;SDS011;46103;52.076;113.488;2022-08-19T03:15:09;1.65;;;0.95;;
60241;SDS011;46103;52.076;113.488;2022-08-19T03:18:15;1.90;;;0.47;;
60241;SDS011;46103;52.076;113.488;2022-08-19T03:21:26;0.70;;;0.47;;
60241;SDS011;46103;52.076;113.488;2022-08-19T03:24:32;10.18;;;0.50;;
60241;SDS011;46103;52.076;113.488;2022-08-19T03:27:37;2.17;;;0.60;;
60241;SDS011;46103;52.076;113.488;2022-08-19T03:30:43;4.43;;;0.70;;
60241;SDS011;46103;52.076;113.488;2022-08-19T03:34:03;0.77;;;0.30;;
60241;SDS011;46103;52.076;113.488;2022-08-19T03:40:19;2.97;;;0.40;;
60241;SDS011;46103;52.076;113.488;2022-08-19T03:43:23;1.23;;;0.40;;
60241;SDS011;46103;52.076;113.488;2022-08-19T03:46:33;2.33;;;0.60;;
60241;SDS011;46103;52.076;113.488;2022-08-19T03:49:43;4.63;;;0.60;;
60241;SDS011;46103;52.076;113.488;2022-08-19T03:52:53;7.22;;;0.70;;
60241;SDS011;46103;52.076;113.488;2022-08-19T03:55:58;1.70;;;0.43;;
60241;SDS011;46103;52.076;113.488;2022-08-19T03:59:05;0.77;;;0.47;;
60241;SDS011;46103;52.076;113.488;2022-08-19T04:02:11;6.57;;;0.80;;
60241;SDS011;46103;52.076;113.488;2022-08-19T04:05:16;4.80;;;0.60;;
60241;SDS011;46103;52.076;113.488;2022-08-19T04:08:25;4.15;;;0.80;;
60241;SDS011;46103;52.076;113.488;2022-08-19T04:11:31;1.33;;;0.40;;
60241;SDS011;46103;52.076;113.488;2022-08-19T04:14:46;4.37;;;0.60;;
60241;SDS011;46103;52.076;113.488;2022-08-19T04:17:50;2.72;;;0.40;;
60241;SDS011;46103;52.076;113.488;2022-08-19T04:20:57;3.00;;;0.68;;
60241;SDS011;46103;52.076;113.488;2022-08-19T04:24:03;3.92;;;0.70;;
60241;SDS011;46103;52.076;113.488;2022-08-19T04:27:09;0.70;;;0.50;;
60241;SDS011;46103;52.076;113.488;2022-08-19T04:30:13;2.70;;;0.60;;
60241;SDS011;46103;52.076;113.488;2022-08-19T04:33:21;2.30;;;1.30;;
60241;SDS011;46103;52.076;113.488;2022-08-19T04:36:31;2.38;;;0.70;;
60241;SDS011;46103;52.076;113.488;2022-08-19T04:39:39;3.58;;;0.80;;
60241;SDS011;46103;52.076;113.488;2022-08-19T04:43:03;1.13;;;0.60;;
60241;SDS011;46103;52.076;113.488;2022-08-19T04:46:10;2.83;;;0.90;;
60241;SDS011;46103;52.076;113.488;2022-08-19T04:49:35;3.95;;;0.70;;
60241;SDS011;46103;52.076;113.488;2022-08-19T04:52:41;3.90;;;0.70;;
60241;SDS011;46103;52.076;113.488;2022-08-19T04:55:46;3.55;;;0.45;;
60241;SDS011;46103;52.076;113.488;2022-08-19T04:58:54;6.50;;;0.77;;
60241;SDS011;46103;52.076;113.488;2022-08-19T05:02:00;3.00;;;0.60;;
60241;SDS011;46103;52.076;113.488;2022-08-19T05:05:06;1.55;;;0.50;;
60241;SDS011;46103;52.076;113.488;2022-08-19T05:08:12;1.50;;;0.47;;
60241;SDS011;46103;52.076;113.488;2022-08-19T05:11:34;1.92;;;0.70;;
60241;SDS011;46103;52.076;113.488;2022-08-19T05:14:47;3.22;;;0.80;;
60241;SDS011;46103;52.076;113.488;2022-08-19T05:17:54;2.85;;;0.82;;
60241;SDS011;46103;52.076;113.488;2022-08-19T05:21:18;0.88;;;0.50;;
60241;SDS011;46103;52.076;113.488;2022-08-19T05:24:42;1.50;;;0.50;;
60241;SDS011;46103;52.076;113.488;2022-08-19T05:28:05;3.05;;;0.40;;
60241;SDS011;46103;52.076;113.488;2022-08-19T05:31:11;2.45;;;0.70;;
60241;SDS011;46103;52.076;113.488;2022-08-19T05:34:17;2.10;;;0.60;;
60241;SDS011;46103;52.076;113.488;2022-08-19T05:37:28;1.23;;;0.40;;
60241;SDS011;46103;52.076;113.488;2022-08-19T05:40:37;1.13;;;0.50;;
60241;SDS011;46103;52.076;113.488;2022-08-19T05:43:42;1.55;;;0.60;;
60241;SDS011;46103;52.076;113.488;2022-08-19T05:46:49;2.35;;;0.50;;
60241;SDS011;46103;52.076;113.488;2022-08-19T05:49:57;2.95;;;0.57;;
60241;SDS011;46103;52.076;113.488;2022-08-19T05:53:07;8.93;;;0.80;;
60241;SDS011;46103;52.076;113.488;2022-08-19T05:56:12;2.72;;;0.70;;
60241;SDS011;46103;52.076;113.488;2022-08-19T06:03:00;1.10;;;0.60;;
60241;SDS011;46103;52.076;113.488;2022-08-19T06:06:27;0.47;;;0.40;;
60241;SDS011;46103;52.076;113.488;2022-08-19T06:09:37;0.25;;;0.25;;
60241;SDS011;46103;52.076;113.488;2022-08-19T06:12:45;2.58;;;0.63;;
60241;SDS011;46103;52.076;113.488;2022-08-19T06:15:51;0.77;;;0.40;;
60241;SDS011;46103;52.076;113.488;2022-08-19T06:24:21;0.63;;;0.40;;
60241;SDS011;46103;52.076;113.488;2022-08-19T06:32:35;2.80;;;0.50;;
60241;SDS011;46103;52.076;113.488;2022-08-19T06:36:48;2.65;;;0.40;;
60241;SDS011;46103;52.076;113.488;2022-08-19T06:39:52;3.35;;;0.65;;
60241;SDS011;46103;52.076;113.488;2022-08-19T06:42:56;1.15;;;0.50;;
60241;SDS011;46103;52.076;113.488;2022-08-19T06:46:09;0.75;;;0.40;;
60241;SDS011;46103;52.076;113.488;2022-08-19T06:49:19;1.00;;;0.40;;
60241;SDS011;46103;52.076;113.488;2022-08-19T06:52:23;3.08;;;0.40;;
60241;SDS011;46103;52.076;113.488;2022-08-19T06:55:28;15.10;;;0.98;;
60241;SDS011;46103;52.076;113.488;2022-08-19T06:58:34;1.63;;;0.55;;
60241;SDS011;46103;52.076;113.488;2022-08-19T07:01:42;0.52;;;0.30;;
60241;SDS011;46103;52.076;113.488;2022-08-19T07:04:52;4.03;;;0.40;;
60241;SDS011;46103;52.076;113.488;2022-08-19T07:07:58;2.88;;;0.45;;
60241;SDS011;46103;52.076;113.488;2022-08-19T07:11:07;1.98;;;0.38;;
60241;SDS011;46103;52.076;113.488;2022-08-19T07:14:15;8.15;;;1.08;;
60241;SDS011;46103;52.076;113.488;2022-08-19T07:17:23;4.88;;;0.95;;
60241;SDS011;46103;52.076;113.488;2022-08-19T07:20:28;3.85;;;0.93;;
60241;SDS011;46103;52.076;113.488;2022-08-19T07:23:34;3.10;;;0.98;;
60241;SDS011;46103;52.076;113.488;2022-08-19T07:26:40;4.22;;;0.70;;
60241;SDS011;46103;52.076;113.488;2022-08-19T07:29:47;4.03;;;0.40;;
60241;SDS011;46103;52.076;113.488;2022-08-19T07:33:01;7.55;;;0.88;;
60241;SDS011;46103;52.076;113.488;2022-08-19T07:36:07;4.30;;;0.65;;
60241;SDS011;46103;52.076;113.488;2022-08-19T07:39:16;2.60;;;0.60;;
60241;SDS011;46103;52.076;113.488;2022-08-19T07:42:24;2.15;;;0.40;;
60241;SDS011;46103;52.076;113.488;2022-08-19T07:45:32;5.82;;;2.47;;
60241;SDS011;46103;52.076;113.488;2022-08-19T07:48:38;2.15;;;0.55;;
60241;SDS011;46103;52.076;113.488;2022-08-19T07:51:45;2.20;;;0.50;;
60241;SDS011;46103;52.076;113.488;2022-08-19T07:54:53;5.18;;;0.75;;
60241;SDS011;46103;52.076;113.488;2022-08-19T07:57:59;5.53;;;0.90;;
60241;SDS011;46103;52.076;113.488;2022-08-19T08:01:06;2.63;;;0.52;;
60241;SDS011;46103;52.076;113.488;2022-08-19T08:04:17;11.35;;;0.73;;
60241;SDS011;46103;52.076;113.488;2022-08-19T08:07:41;6.78;;;1.27;;
60241;SDS011;46103;52.076;113.488;2022-08-19T08:11:04;6.13;;;1.08;;
60241;SDS011;46103;52.076;113.488;2022-08-19T08:14:11;0.30;;;0.30;;
60241;SDS011;46103;52.076;113.488;2022-08-19T08:17:36;2.80;;;0.45;;
60241;SDS011;46103;52.076;113.488;2022-08-19T08:20:51;2.83;;;0.40;;
60241;SDS011;46103;52.076;113.488;2022-08-19T08:23:56;2.60;;;0.50;;
60241;SDS011;46103;52.076;113.488;2022-08-19T08:27:02;0.65;;;0.30;;
60241;SDS011;46103;52.076;113.488;2022-08-19T08:30:15;2.97;;;0.60;;
60241;SDS011;46103;52.076;113.488;2022-08-19T08:33:23;0.65;;;0.40;;
60241;SDS011;46103;52.076;113.488;2022-08-19T08:36:37;1.17;;;0.50;;
60241;SDS011;46103;52.076;113.488;2022-08-19T08:39:46;1.80;;;1.23;;
60241;SDS011;46103;52.076;113.488;2022-08-19T08:42:58;1.88;;;0.30;;
60241;SDS011;46103;52.076;113.488;2022-08-19T08:52:57;1.70;;;0.80;;
60241;SDS011;46103;52.076;113.488;2022-08-19T08:56:03;0.30;;;0.30;;
60241;SDS011;46103;52.076;113.488;2022-08-19T08:59:30;1.55;;;0.40;;
60241;SDS011;46103;52.076;113.488;2022-08-19T09:02:37;1.95;;;0.50;;
60241;SDS011;46103;52.076;113.488;2022-08-19T09:09:02;10.23;;;2.10;;
60241;SDS011;46103;52.076;113.488;2022-08-19T09:15:47;6.32;;;0.80;;
60241;SDS011;46103;52.076;113.488;2022-08-19T09:18:59;8.27;;;1.30;;
60241;SDS011;46103;52.076;113.488;2022-08-19T09:22:08;5.25;;;0.70;;
60241;SDS011;46103;52.076;113.488;2022-08-19T09:25:14;6.80;;;0.90;;
60241;SDS011;46103;52.076;113.488;2022-08-19T09:28:30;8.65;;;1.17;;
60241;SDS011;46103;52.076;113.488;2022-08-19T09:34:41;9.60;;;1.60;;
60241;SDS011;46103;52.076;113.488;2022-08-19T09:37:52;8.35;;;1.15;;
60241;SDS011;46103;52.076;113.488;2022-08-19T09:41:04;0.90;;;0.40;;
60241;SDS011;46103;52.076;113.488;2022-08-19T09:44:13;2.97;;;0.43;;
60241;SDS011;46103;52.076;113.488;2022-08-19T09:47:20;2.03;;;0.60;;
60241;SDS011;46103;52.076;113.488;2022-08-19T09:50:26;2.72;;;0.90;;
60241;SDS011;46103;52.076;113.488;2022-08-19T09:53:37;2.95;;;0.90;;
60241;SDS011;46103;52.076;113.488;2022-08-19T09:56:43;4.60;;;0.70;;
60241;SDS011;46103;52.076;113.488;2022-08-19T09:59:49;3.65;;;0.70;;
60241;SDS011;46103;52.076;113.488;2022-08-19T10:02:52;6.88;;;0.70;;
60241;SDS011;46103;52.076;113.488;2022-08-19T10:05:57;5.97;;;0.70;;
60241;SDS011;46103;52.076;113.488;2022-08-19T10:09:02;0.85;;;0.50;;
60241;SDS011;46103;52.076;113.488;2022-08-19T10:12:10;1.85;;;0.60;;
60241;SDS011;46103;52.076;113.488;2022-08-19T10:15:19;0.80;;;0.50;;
60241;SDS011;46103;52.076;113.488;2022-08-19T10:18:30;4.28;;;0.80;;
60241;SDS011;46103;52.076;113.488;2022-08-19T10:21:39;1.75;;;0.57;;
60241;SDS011;46103;52.076;113.488;2022-08-19T10:24:43;4.28;;;0.98;;
60241;SDS011;46103;52.076;113.488;2022-08-19T10:28:06;4.90;;;0.77;;
60241;SDS011;46103;52.076;113.488;2022-08-19T10:31:21;0.40;;;0.38;;
60241;SDS011;46103;52.076;113.488;2022-08-19T10:35:04;1.90;;;0.90;;
60241;SDS011;46103;52.076;113.488;2022-08-19T10:38:33;1.00;;;0.70;;
60241;SDS011;46103;52.076;113.488;2022-08-19T10:41:54;3.97;;;1.25;;
60241;SDS011;46103;52.076;113.488;2022-08-19T10:45:04;4.18;;;1.90;;
60241;SDS011;46103;52.076;113.488;2022-08-19T10:48:08;1.20;;;0.90;;
60241;SDS011;46103;52.076;113.488;2022-08-19T10:51:20;2.50;;;0.90;;
60241;SDS011;46103;52.076;113.488;2022-08-19T10:58:46;0.93;;;0.45;;
60241;SDS011;46103;52.076;113.488;2022-08-19T11:01:52;2.25;;;0.70;;
60241;SDS011;46103;52.076;113.488;2022-08-19T11:04:58;2.13;;;1.00;;
60241;SDS011;46103;52.076;113.488;2022-08-19T11:08:14;3.73;;;1.60;;
60241;SDS011;46103;52.076;113.488;2022-08-19T11:11:34;6.22;;;2.00;;
60241;SDS011;46103;52.076;113.488;2022-08-19T11:14:43;2.58;;;1.33;;
60241;SDS011;46103;52.076;113.488;2022-08-19T11:17:47;6.53;;;2.60;;
60241;SDS011;46103;52.076;113.488;2022-08-19T11:20:51;6.60;;;2.30;;
60241;SDS011;46103;52.076;113.488;2022-08-19T11:23:58;5.03;;;2.28;;
60241;SDS011;46103;52.076;113.488;2022-08-19T11:27:13;2.33;;;1.30;;
60241;SDS011;46103;52.076;113.488;2022-08-19T11:30:16;6.18;;;2.15;;
60241;SDS011;46103;52.076;113.488;2022-08-19T11:33:20;7.43;;;3.03;;
60241;SDS011;46103;52.076;113.488;2022-08-19T11:36:25;9.35;;;2.50;;
60241;SDS011;46103;52.076;113.488;2022-08-19T11:39:30;4.35;;;1.60;;
60241;SDS011;46103;52.076;113.488;2022-08-19T11:42:37;1.63;;;0.65;;
60241;SDS011;46103;52.076;113.488;2022-08-19T11:46:09;0.73;;;0.50;;
60241;SDS011;46103;52.076;113.488;2022-08-19T11:49:16;3.15;;;0.70;;
60241;SDS011;46103;52.076;113.488;2022-08-19T11:52:26;2.38;;;0.70;;
60241;SDS011;46103;52.076;113.488;2022-08-19T11:55:38;1.50;;;0.60;;
60241;SDS011;46103;52.076;113.488;2022-08-19T11:58:46;2.28;;;0.80;;
60241;SDS011;46103;52.076;113.488;2022-08-19T12:01:52;6.13;;;1.60;;
60241;SDS011;46103;52.076;113.488;2022-08-19T12:04:57;1.30;;;0.70;;
60241;SDS011;46103;52.076;113.488;2022-08-19T12:08:01;3.17;;;1.02;;
60241;SDS011;46103;52.076;113.488;2022-08-19T12:11:07;3.17;;;1.20;;
60241;SDS011;46103;52.076;113.488;2022-08-19T12:14:11;1.92;;;1.00;;
60241;SDS011;46103;52.076;113.488;2022-08-19T12:17:20;4.13;;;0.77;;
60241;SDS011;46103;52.076;113.488;2022-08-19T12:20:24;3.00;;;1.00;;
60241;SDS011;46103;52.076;113.488;2022-08-19T12:23:29;3.83;;;1.20;;
60241;SDS011;46103;52.076;113.488;2022-08-19T12:26:33;2.03;;;0.90;;
60241;SDS011;46103;52.076;113.488;2022-08-19T12:29:54;2.00;;;0.90;;
60241;SDS011;46103;52.076;113.488;2022-08-19T12:32:58;1.23;;;0.73;;
60241;SDS011;46103;52.076;113.488;2022-08-19T12:36:07;4.50;;;1.00;;
60241;SDS011;46103;52.076;113.488;2022-08-19T12:39:13;2.30;;;1.02;;
60241;SDS011;46103;52.076;113.488;2022-08-19T12:42:17;2.17;;;1.20;;
60241;SDS011;46103;52.076;113.488;2022-08-19T12:45:21;1.23;;;0.70;;
60241;SDS011;46103;52.076;113.488;2022-08-19T12:48:26;4.65;;;1.23;;
60241;SDS011;46103;52.076;113.488;2022-08-19T12:51:36;3.35;;;1.50;;
60241;SDS011;46103;52.076;113.488;2022-08-19T12:54:40;3.80;;;1.20;;
60241;SDS011;46103;52.076;113.488;2022-08-19T12:57:45;1.20;;;0.80;;
60241;SDS011;46103;52.076;113.488;2022-08-19T13:00:54;2.78;;;1.13;;
60241;SDS011;46103;52.076;113.488;2022-08-19T13:03:58;2.22;;;1.02;;
60241;SDS011;46103;52.076;113.488;2022-08-19T13:07:03;2.45;;;0.70;;
60241;SDS011;46103;52.076;113.488;2022-08-19T13:10:08;4.53;;;0.98;;
60241;SDS011;46103;52.076;113.488;2022-08-19T13:13:14;3.65;;;1.00;;
60241;SDS011;46103;52.076;113.488;2022-08-19T13:16:18;2.45;;;0.98;;
60241;SDS011;46103;52.076;113.488;2022-08-19T13:19:23;3.08;;;1.30;;
60241;SDS011;46103;52.076;113.488;2022-08-19T13:22:27;1.83;;;0.80;;
60241;SDS011;46103;52.076;113.488;2022-08-19T13:25:31;4.75;;;1.10;;
60241;SDS011;46103;52.076;113.488;2022-08-19T13:28:35;2.88;;;1.23;;
60241;SDS011;46103;52.076;113.488;2022-08-19T13:31:58;4.68;;;1.70;;
60241;SDS011;46103;52.076;113.488;2022-08-19T13:35:20;3.38;;;1.20;;
60241;SDS011;46103;52.076;113.488;2022-08-19T13:38:25;3.58;;;1.20;;
60241;SDS011;46103;52.076;113.488;2022-08-19T13:41:51;1.48;;;0.70;;
60241;SDS011;46103;52.076;113.488;2022-08-19T13:44:56;1.38;;;0.70;;
60241;SDS011;46103;52.076;113.488;2022-08-19T13:48:02;5.15;;;0.95;;
60241;SDS011;46103;52.076;113.488;2022-08-19T13:51:24;1.98;;;0.90;;
60241;SDS011;46103;52.076;113.488;2022-08-19T13:54:28;1.77;;;0.80;;
60241;SDS011;46103;52.076;113.488;2022-08-19T13:57:33;2.78;;;0.85;;
60241;SDS011;46103;52.076;113.488;2022-08-19T14:00:39;1.40;;;0.90;;
60241;SDS011;46103;52.076;113.488;2022-08-19T14:03:47;2.72;;;0.85;;
60241;SDS011;46103;52.076;113.488;2022-08-19T14:06:56;1.17;;;0.80;;
60241;SDS011;46103;52.076;113.488;2022-08-19T14:10:00;1.48;;;0.93;;
60241;SDS011;46103;52.076;113.488;2022-08-19T14:13:04;1.95;;;1.00;;
60241;SDS011;46103;52.076;113.488;2022-08-19T14:16:22;2.05;;;0.90;;
60241;SDS011;46103;52.076;113.488;2022-08-19T14:19:27;1.65;;;1.00;;
60241;SDS011;46103;52.076;113.488;2022-08-19T14:22:32;2.53;;;1.00;;
60241;SDS011;46103;52.076;113.488;2022-08-19T14:25:43;4.65;;;0.98;;
60241;SDS011;46103;52.076;113.488;2022-08-19T14:28:52;1.65;;;0.80;;
60241;SDS011;46103;52.076;113.488;2022-08-19T14:31:58;1.10;;;0.70;;
60241;SDS011;46103;52.076;113.488;2022-08-19T14:35:03;2.35;;;0.90;;
60241;SDS011;46103;52.076;113.488;2022-08-19T14:38:22;1.00;;;0.70;;
60241;SDS011;46103;52.076;113.488;2022-08-19T14:41:48;2.28;;;0.95;;
60241;SDS011;46103;52.076;113.488;2022-08-19T14:44:52;2.22;;;0.95;;
60241;SDS011;46103;52.076;113.488;2022-08-19T14:47:56;4.93;;;1.35;;
60241;SDS011;46103;52.076;113.488;2022-08-19T14:51:02;2.33;;;1.00;;
60241;SDS011;46103;52.076;113.488;2022-08-19T14:54:25;1.35;;;1.00;;
60241;SDS011;46103;52.076;113.488;2022-08-19T14:57:31;4.30;;;0.88;;
60241;SDS011;46103;52.076;113.488;2022-08-19T15:00:39;3.35;;;1.10;;
60241;SDS011;46103;52.076;113.488;2022-08-19T15:03:49;2.65;;;1.10;;
60241;SDS011;46103;52.076;113.488;2022-08-19T15:10:54;10.20;;;2.47;;
60241;SDS011;46103;52.076;113.488;2022-08-19T15:13:59;5.35;;;2.25;;
60241;SDS011;46103;52.076;113.488;2022-08-19T15:17:13;5.20;;;1.92;;
60241;SDS011;46103;52.076;113.488;2022-08-19T15:20:18;6.22;;;2.20;;
60241;SDS011;46103;52.076;113.488;2022-08-19T15:23:24;3.92;;;2.28;;
60241;SDS011;46103;52.076;113.488;2022-08-19T15:26:27;7.80;;;2.70;;
60241;SDS011;46103;52.076;113.488;2022-08-19T15:32:39;5.35;;;2.55;;
60241;SDS011;46103;52.076;113.488;2022-08-19T15:35:53;6.15;;;1.92;;
60241;SDS011;46103;52.076;113.488;2022-08-19T15:39:03;3.33;;;1.40;;
60241;SDS011;46103;52.076;113.488;2022-08-19T15:42:12;3.80;;;1.65;;
60241;SDS011;46103;52.076;113.488;2022-08-19T15:45:31;5.18;;;2.28;;
60241;SDS011;46103;52.076;113.488;2022-08-19T15:48:36;4.97;;;1.60;;
60241;SDS011;46103;52.076;113.488;2022-08-19T15:51:42;3.00;;;1.60;;
60241;SDS011;46103;52.076;113.488;2022-08-19T15:54:47;4.60;;;1.63;;
60241;SDS011;46103;52.076;113.488;2022-08-19T15:57:52;4.13;;;2.08;;
60241;SDS011;46103;52.076;113.488;2022-08-19T16:01:30;4.03;;;1.92;;
60241;SDS011;46103;52.076;113.488;2022-08-19T16:04:42;2.95;;;1.50;;
60241;SDS011;46103;52.076;113.488;2022-08-19T16:08:06;6.20;;;1.38;;
60241;SDS011;46103;52.076;113.488;2022-08-19T16:11:13;4.03;;;1.52;;
60241;SDS011;46103;52.076;113.488;2022-08-19T16:14:24;4.03;;;1.70;;
60241;SDS011;46103;52.076;113.488;2022-08-19T16:17:30;2.88;;;1.60;;
60241;SDS011;46103;52.076;113.488;2022-08-19T16:20:35;4.60;;;1.83;;
60241;SDS011;46103;52.076;113.488;2022-08-19T16:23:43;3.85;;;1.63;;
60241;SDS011;46103;52.076;113.488;2022-08-19T16:26:49;3.53;;;1.35;;
60241;SDS011;46103;52.076;113.488;2022-08-19T16:29:59;4.25;;;1.20;;
60241;SDS011;46103;52.076;113.488;2022-08-19T16:33:06;6.18;;;1.45;;
60241;SDS011;46103;52.076;113.488;2022-08-19T16:36:24;10.35;;;2.17;;
60241;SDS011;46103;52.076;113.488;2022-08-19T16:39:33;5.30;;;1.83;;
60241;SDS011;46103;52.076;113.488;2022-08-19T16:42:39;4.05;;;1.67;;
60241;SDS011;46103;52.076;113.488;2022-08-19T16:45:47;2.92;;;1.35;;
60241;SDS011;46103;52.076;113.488;2022-08-19T16:48:56;3.38;;;1.67;;
60241;SDS011;46103;52.076;113.488;2022-08-19T16:52:03;1.60;;;1.20;;
60241;SDS011;46103;52.076;113.488;2022-08-19T16:55:09;1.70;;;0.98;;
60241;SDS011;46103;52.076;113.488;2022-08-19T16:58:16;3.83;;;1.50;;
60241;SDS011;46103;52.076;113.488;2022-08-19T17:01:29;5.18;;;1.30;;
60241;SDS011;46103;52.076;113.488;2022-08-19T17:04:36;1.90;;;1.10;;
60241;SDS011;46103;52.076;113.488;2022-08-19T17:07:42;2.22;;;1.20;;
60241;SDS011;46103;52.076;113.488;2022-08-19T17:10:48;2.30;;;1.20;;
60241;SDS011;46103;52.076;113.488;2022-08-19T17:14:15;5.77;;;1.43;;
60241;SDS011;46103;52.076;113.488;2022-08-19T17:17:22;5.82;;;1.35;;
60241;SDS011;46103;52.076;113.488;2022-08-19T17:20:31;2.28;;;1.20;;
60241;SDS011;46103;52.076;113.488;2022-08-19T17:23:38;2.80;;;1.23;;
60241;SDS011;46103;52.076;113.488;2022-08-19T17:26:46;4.85;;;1.33;;
60241;SDS011;46103;52.076;113.488;2022-08-19T17:29:52;2.08;;;1.08;;
60241;SDS011;46103;52.076;113.488;2022-08-19T17:32:58;2.88;;;1.30;;
60241;SDS011;46103;52.076;113.488;2022-08-19T17:36:04;3.40;;;1.55;;
60241;SDS011;46103;52.076;113.488;2022-08-19T17:39:09;4.30;;;1.30;;
60241;SDS011;46103;52.076;113.488;2022-08-19T17:42:14;4.28;;;1.52;;
60241;SDS011;46103;52.076;113.488;2022-08-19T17:45:21;3.58;;;1.42;;
60241;SDS011;46103;52.076;113.488;2022-08-19T17:48:31;5.77;;;1.37;;
60241;SDS011;46103;52.076;113.488;2022-08-19T17:51:44;4.68;;;1.30;;
60241;SDS011;46103;52.076;113.488;2022-08-19T17:54:52;7.80;;;1.38;;
60241;SDS011;46103;52.076;113.488;2022-08-19T17:57:57;4.65;;;1.60;;
60241;SDS011;46103;52.076;113.488;2022-08-19T18:01:11;3.63;;;1.30;;
60241;SDS011;46103;52.076;113.488;2022-08-19T18:04:22;5.40;;;1.33;;
60241;SDS011;46103;52.076;113.488;2022-08-19T18:07:29;4.15;;;1.42;;
60241;SDS011;46103;52.076;113.488;2022-08-19T18:10:37;3.63;;;1.30;;
60241;SDS011;46103;52.076;113.488;2022-08-19T18:13:42;3.17;;;1.60;;
60241;SDS011;46103;52.076;113.488;2022-08-19T18:16:48;4.60;;;1.50;;
60241;SDS011;46103;52.076;113.488;2022-08-19T18:19:57;6.68;;;1.90;;
60241;SDS011;46103;52.076;113.488;2022-08-19T18:23:03;5.05;;;1.38;;
60241;SDS011;46103;52.076;113.488;2022-08-19T18:26:29;7.63;;;1.55;;
60241;SDS011;46103;52.076;113.488;2022-08-19T18:29:34;4.38;;;1.52;;
60241;SDS011;46103;52.076;113.488;2022-08-19T18:32:43;4.05;;;1.27;;
60241;SDS011;46103;52.076;113.488;2022-08-19T18:35:52;3.20;;;1.20;;
60241;SDS011;46103;52.076;113.488;2022-08-19T18:38:58;4.10;;;1.30;;
60241;SDS011;46103;52.076;113.488;2022-08-19T18:42:24;3.75;;;1.40;;
60241;SDS011;46103;52.076;113.488;2022-08-19T18:45:48;4.13;;;1.33;;
60241;SDS011;46103;52.076;113.488;2022-08-19T18:49:14;8.85;;;1.70;;
60241;SDS011;46103;52.076;113.488;2022-08-19T18:52:24;4.00;;;1.58;;
60241;SDS011;46103;52.076;113.488;2022-08-19T18:55:31;4.35;;;1.27;;
60241;SDS011;46103;52.076;113.488;2022-08-19T18:58:37;4.60;;;1.55;;
60241;SDS011;46103;52.076;113.488;2022-08-19T19:01:45;4.43;;;1.33;;
60241;SDS011;46103;52.076;113.488;2022-08-19T19:04:53;2.95;;;1.25;;
60241;SDS011;46103;52.076;113.488;2022-08-19T19:07:59;4.45;;;2.08;;
60241;SDS011;46103;52.076;113.488;2022-08-19T19:11:04;3.38;;;1.60;;
60241;SDS011;46103;52.076;113.488;2022-08-19T19:14:14;7.70;;;1.35;;
60241;SDS011;46103;52.076;113.488;2022-08-19T19:17:44;5.85;;;1.70;;